sensor_id;sensor_type;location;lat;lon;timestamp;P1;durP1;ratioP1;P2;durP2;ratioP2
66669;SDS011;53568;52.164;4.472;2022-12-18T00:01:28;72.04;;;61.78;;
66669;SDS011;53568;52.164;4.472;2022-12-18T00:03:56;71.53;;;61.39;;
66669;SDS011;53568;52.164;4.472;2022-12-18T00:06:23;69.97;;;60.68;;
66669;SDS011;53568;52.164;4.472;2022-12-18T00:08:50;72.56;;;62.38;;
66669;SDS011;53568;52.164;4.472;2022-12-18T00:11:17;72.92;;;62.16;;
66669;SDS011;53568;52.164;4.472;2022-12-18T00:13:44;72.63;;;62.13;;
66669;SDS011;53568;52.164;4.472;2022-12-18T00:16:12;69.97;;;60.60;;
66669;SDS011;53568;52.164;4.472;2022-12-18T00:18:40;68.40;;;59.01;;
66669;SDS011;53568;52.164;4.472;2022-12-18T00:21:08;66.45;;;57.46;;
66669;SDS011;53568;52.164;4.472;2022-12-18T00:23:35;65.28;;;56.63;;
66669;SDS011;53568;52.164;4.472;2022-12-18T00:26:04;65.16;;;56.86;;
66669;SDS011;53568;52.164;4.472;2022-12-18T00:28:34;64.67;;;57.05;;
66669;SDS011;53568;52.164;4.472;2022-12-18T00:31:06;66.17;;;57.43;;
66669;SDS011;53568;52.164;4.472;2022-12-18T00:33:36;66.24;;;57.52;;
66669;SDS011;53568;52.164;4.472;2022-12-18T00:36:07;66.40;;;57.65;;
66669;SDS011;53568;52.164;4.472;2022-12-18T00:38:38;63.05;;;55.14;;
66669;SDS011;53568;52.164;4.472;2022-12-18T00:41:05;67.00;;;57.48;;
66669;SDS011;53568;52.164;4.472;2022-12-18T00:43:32;64.35;;;56.24;;
66669;SDS011;53568;52.164;4.472;2022-12-18T00:45:58;66.86;;;58.28;;
66669;SDS011;53568;52.164;4.472;2022-12-18T00:48:23;68.93;;;58.69;;
66669;SDS011;53568;52.164;4.472;2022-12-18T00:50:49;69.42;;;59.39;;
66669;SDS011;53568;52.164;4.472;2022-12-18T00:53:15;70.81;;;60.57;;
66669;SDS011;53568;52.164;4.472;2022-12-18T00:55:41;72.47;;;61.32;;
66669;SDS011;53568;52.164;4.472;2022-12-18T00:58:08;75.65;;;62.84;;
66669;SDS011;53568;52.164;4.472;2022-12-18T01:00:35;75.41;;;62.46;;
66669;SDS011;53568;52.164;4.472;2022-12-18T01:03:01;77.09;;;63.86;;
66669;SDS011;53568;52.164;4.472;2022-12-18T01:05:26;76.72;;;62.55;;
66669;SDS011;53568;52.164;4.472;2022-12-18T01:07:52;76.42;;;62.72;;
66669;SDS011;53568;52.164;4.472;2022-12-18T01:10:17;76.76;;;62.51;;
66669;SDS011;53568;52.164;4.472;2022-12-18T01:12:43;76.11;;;62.21;;
66669;SDS011;53568;52.164;4.472;2022-12-18T01:15:09;74.17;;;61.32;;
66669;SDS011;53568;52.164;4.472;2022-12-18T01:17:37;71.66;;;59.48;;
66669;SDS011;53568;52.164;4.472;2022-12-18T01:20:02;71.32;;;59.24;;
66669;SDS011;53568;52.164;4.472;2022-12-18T01:22:29;71.94;;;59.49;;
66669;SDS011;53568;52.164;4.472;2022-12-18T01:24:54;72.16;;;60.05;;
66669;SDS011;53568;52.164;4.472;2022-12-18T01:27:20;72.66;;;59.73;;
66669;SDS011;53568;52.164;4.472;2022-12-18T01:29:45;70.29;;;58.92;;
66669;SDS011;53568;52.164;4.472;2022-12-18T01:32:11;68.66;;;58.07;;
66669;SDS011;53568;52.164;4.472;2022-12-18T01:34:37;69.66;;;58.62;;
66669;SDS011;53568;52.164;4.472;2022-12-18T01:37:04;70.02;;;58.46;;
66669;SDS011;53568;52.164;4.472;2022-12-18T01:39:30;68.82;;;58.13;;
66669;SDS011;53568;52.164;4.472;2022-12-18T01:41:57;69.58;;;58.34;;
66669;SDS011;53568;52.164;4.472;2022-12-18T01:50:11;62.83;;;53.71;;
66669;SDS011;53568;52.164;4.472;2022-12-18T01:53:12;62.17;;;53.75;;
66669;SDS011;53568;52.164;4.472;2022-12-18T01:55:46;65.17;;;55.45;;
66669;SDS011;53568;52.164;4.472;2022-12-18T01:58:15;67.03;;;56.37;;
66669;SDS011;53568;52.164;4.472;2022-12-18T02:00:43;69.33;;;57.47;;
66669;SDS011;53568;52.164;4.472;2022-12-18T02:03:09;70.72;;;58.87;;
66669;SDS011;53568;52.164;4.472;2022-12-18T02:08:43;67.78;;;56.92;;
66669;SDS011;53568;52.164;4.472;2022-12-18T02:11:26;69.51;;;57.78;;
66669;SDS011;53568;52.164;4.472;2022-12-18T02:19:37;61.82;;;52.86;;
66669;SDS011;53568;52.164;4.472;2022-12-18T02:27:31;61.67;;;52.87;;
66669;SDS011;53568;52.164;4.472;2022-12-18T02:30:00;61.13;;;52.49;;
66669;SDS011;53568;52.164;4.472;2022-12-18T02:32:30;61.47;;;52.82;;
66669;SDS011;53568;52.164;4.472;2022-12-18T02:35:01;59.06;;;50.89;;
66669;SDS011;53568;52.164;4.472;2022-12-18T02:37:31;56.95;;;49.13;;
66669;SDS011;53568;52.164;4.472;2022-12-18T02:40:00;55.80;;;48.50;;
66669;SDS011;53568;52.164;4.472;2022-12-18T02:42:29;56.73;;;49.37;;
66669;SDS011;53568;52.164;4.472;2022-12-18T02:44:55;54.35;;;47.71;;
66669;SDS011;53568;52.164;4.472;2022-12-18T02:47:22;55.04;;;48.75;;
66669;SDS011;53568;52.164;4.472;2022-12-18T02:53:01;53.44;;;47.25;;
66669;SDS011;53568;52.164;4.472;2022-12-18T02:55:47;54.80;;;47.80;;
66669;SDS011;53568;52.164;4.472;2022-12-18T02:58:34;58.44;;;50.64;;
66669;SDS011;53568;52.164;4.472;2022-12-18T03:01:21;56.59;;;49.77;;
66669;SDS011;53568;52.164;4.472;2022-12-18T03:03:59;57.24;;;49.41;;
66669;SDS011;53568;52.164;4.472;2022-12-18T03:06:32;55.02;;;48.49;;
66669;SDS011;53568;52.164;4.472;2022-12-18T03:09:07;54.64;;;48.43;;
66669;SDS011;53568;52.164;4.472;2022-12-18T03:11:38;54.19;;;47.61;;
66669;SDS011;53568;52.164;4.472;2022-12-18T03:14:26;56.29;;;48.77;;
66669;SDS011;53568;52.164;4.472;2022-12-18T03:16:57;54.46;;;48.15;;
66669;SDS011;53568;52.164;4.472;2022-12-18T03:19:28;55.72;;;49.14;;
66669;SDS011;53568;52.164;4.472;2022-12-18T03:21:57;56.96;;;49.63;;
66669;SDS011;53568;52.164;4.472;2022-12-18T03:24:27;55.33;;;48.42;;
66669;SDS011;53568;52.164;4.472;2022-12-18T03:27:02;54.20;;;47.81;;
66669;SDS011;53568;52.164;4.472;2022-12-18T03:29:38;54.11;;;47.62;;
66669;SDS011;53568;52.164;4.472;2022-12-18T03:32:09;53.47;;;47.31;;
66669;SDS011;53568;52.164;4.472;2022-12-18T03:34:40;53.39;;;47.69;;
66669;SDS011;53568;52.164;4.472;2022-12-18T03:37:11;57.06;;;49.44;;
66669;SDS011;53568;52.164;4.472;2022-12-18T03:39:37;58.82;;;51.33;;
66669;SDS011;53568;52.164;4.472;2022-12-18T03:47:16;60.51;;;52.30;;
66669;SDS011;53568;52.164;4.472;2022-12-18T03:49:58;60.44;;;52.37;;
66669;SDS011;53568;52.164;4.472;2022-12-18T03:52:57;60.39;;;51.89;;
66669;SDS011;53568;52.164;4.472;2022-12-18T03:55:34;59.83;;;51.45;;
66669;SDS011;53568;52.164;4.472;2022-12-18T03:58:03;59.24;;;51.16;;
66669;SDS011;53568;52.164;4.472;2022-12-18T04:00:32;57.20;;;49.71;;
66669;SDS011;53568;52.164;4.472;2022-12-18T04:02:59;59.43;;;51.44;;
66669;SDS011;53568;52.164;4.472;2022-12-18T04:05:27;57.23;;;49.50;;
66669;SDS011;53568;52.164;4.472;2022-12-18T04:07:55;57.33;;;50.05;;
66669;SDS011;53568;52.164;4.472;2022-12-18T04:10:22;58.27;;;50.32;;
66669;SDS011;53568;52.164;4.472;2022-12-18T04:12:48;59.21;;;50.38;;
66669;SDS011;53568;52.164;4.472;2022-12-18T04:15:13;59.70;;;50.91;;
66669;SDS011;53568;52.164;4.472;2022-12-18T04:17:43;56.27;;;49.22;;
66669;SDS011;53568;52.164;4.472;2022-12-18T04:20:13;56.93;;;49.57;;
66669;SDS011;53568;52.164;4.472;2022-12-18T04:22:39;58.39;;;50.61;;
66669;SDS011;53568;52.164;4.472;2022-12-18T04:25:05;58.01;;;49.72;;
66669;SDS011;53568;52.164;4.472;2022-12-18T04:27:31;57.68;;;49.90;;
66669;SDS011;53568;52.164;4.472;2022-12-18T04:29:56;60.71;;;51.16;;
66669;SDS011;53568;52.164;4.472;2022-12-18T04:32:22;56.50;;;48.95;;
66669;SDS011;53568;52.164;4.472;2022-12-18T04:34:47;59.00;;;50.21;;
66669;SDS011;53568;52.164;4.472;2022-12-18T04:37:13;61.33;;;51.72;;
66669;SDS011;53568;52.164;4.472;2022-12-18T04:39:39;62.13;;;52.11;;
66669;SDS011;53568;52.164;4.472;2022-12-18T04:42:04;62.50;;;52.44;;
66669;SDS011;53568;52.164;4.472;2022-12-18T04:44:30;60.19;;;51.28;;
66669;SDS011;53568;52.164;4.472;2022-12-18T04:46:55;59.43;;;50.93;;
66669;SDS011;53568;52.164;4.472;2022-12-18T04:49:21;60.69;;;51.54;;
66669;SDS011;53568;52.164;4.472;2022-12-18T04:51:47;60.37;;;51.77;;
66669;SDS011;53568;52.164;4.472;2022-12-18T04:54:12;61.80;;;52.39;;
66669;SDS011;53568;52.164;4.472;2022-12-18T04:56:37;59.39;;;50.81;;
66669;SDS011;53568;52.164;4.472;2022-12-18T04:59:03;57.57;;;49.88;;
66669;SDS011;53568;52.164;4.472;2022-12-18T05:01:29;57.70;;;50.47;;
66669;SDS011;53568;52.164;4.472;2022-12-18T05:03:54;61.22;;;51.94;;
66669;SDS011;53568;52.164;4.472;2022-12-18T05:06:20;56.38;;;49.56;;
66669;SDS011;53568;52.164;4.472;2022-12-18T05:08:45;59.12;;;50.90;;
66669;SDS011;53568;52.164;4.472;2022-12-18T05:11:12;58.44;;;50.53;;
66669;SDS011;53568;52.164;4.472;2022-12-18T05:13:43;56.63;;;49.72;;
66669;SDS011;53568;52.164;4.472;2022-12-18T05:16:10;57.32;;;50.07;;
66669;SDS011;53568;52.164;4.472;2022-12-18T05:18:37;58.98;;;51.10;;
66669;SDS011;53568;52.164;4.472;2022-12-18T05:21:03;57.28;;;49.75;;
66669;SDS011;53568;52.164;4.472;2022-12-18T05:23:29;55.65;;;48.92;;
66669;SDS011;53568;52.164;4.472;2022-12-18T05:25:56;53.69;;;47.41;;
66669;SDS011;53568;52.164;4.472;2022-12-18T05:28:24;51.93;;;46.07;;
66669;SDS011;53568;52.164;4.472;2022-12-18T05:30:51;49.50;;;44.32;;
66669;SDS011;53568;52.164;4.472;2022-12-18T05:33:19;48.79;;;43.81;;
66669;SDS011;53568;52.164;4.472;2022-12-18T05:35:50;48.23;;;43.36;;
66669;SDS011;53568;52.164;4.472;2022-12-18T05:38:17;48.60;;;43.57;;
66669;SDS011;53568;52.164;4.472;2022-12-18T05:40:43;45.99;;;41.92;;
66669;SDS011;53568;52.164;4.472;2022-12-18T05:43:09;47.51;;;42.41;;
66669;SDS011;53568;52.164;4.472;2022-12-18T05:45:38;47.13;;;42.79;;
66669;SDS011;53568;52.164;4.472;2022-12-18T05:48:05;46.47;;;42.53;;
66669;SDS011;53568;52.164;4.472;2022-12-18T05:50:33;47.20;;;43.27;;
66669;SDS011;53568;52.164;4.472;2022-12-18T05:53:03;46.53;;;42.52;;
66669;SDS011;53568;52.164;4.472;2022-12-18T05:55:32;47.41;;;43.12;;
66669;SDS011;53568;52.164;4.472;2022-12-18T05:58:02;47.76;;;42.96;;
66669;SDS011;53568;52.164;4.472;2022-12-18T06:00:29;47.07;;;43.08;;
66669;SDS011;53568;52.164;4.472;2022-12-18T06:02:55;47.38;;;43.78;;
66669;SDS011;53568;52.164;4.472;2022-12-18T06:05:20;49.04;;;44.76;;
66669;SDS011;53568;52.164;4.472;2022-12-18T06:07:46;49.83;;;45.11;;
66669;SDS011;53568;52.164;4.472;2022-12-18T06:10:12;47.80;;;43.94;;
66669;SDS011;53568;52.164;4.472;2022-12-18T06:12:37;47.63;;;44.04;;
66669;SDS011;53568;52.164;4.472;2022-12-18T06:15:03;46.92;;;43.47;;
66669;SDS011;53568;52.164;4.472;2022-12-18T06:17:30;48.58;;;44.55;;
66669;SDS011;53568;52.164;4.472;2022-12-18T06:19:56;48.49;;;44.53;;
66669;SDS011;53568;52.164;4.472;2022-12-18T06:22:21;49.31;;;44.82;;
66669;SDS011;53568;52.164;4.472;2022-12-18T06:24:47;47.88;;;44.23;;
66669;SDS011;53568;52.164;4.472;2022-12-18T06:27:12;48.94;;;45.50;;
66669;SDS011;53568;52.164;4.472;2022-12-18T06:29:39;49.60;;;45.63;;
66669;SDS011;53568;52.164;4.472;2022-12-18T06:32:04;50.07;;;45.87;;
66669;SDS011;53568;52.164;4.472;2022-12-18T06:34:30;49.91;;;45.99;;
66669;SDS011;53568;52.164;4.472;2022-12-18T06:36:55;50.54;;;46.53;;
66669;SDS011;53568;52.164;4.472;2022-12-18T06:39:21;49.34;;;45.72;;
66669;SDS011;53568;52.164;4.472;2022-12-18T06:41:46;48.29;;;44.88;;
66669;SDS011;53568;52.164;4.472;2022-12-18T06:44:12;48.09;;;44.65;;
66669;SDS011;53568;52.164;4.472;2022-12-18T06:46:37;48.58;;;44.90;;
66669;SDS011;53568;52.164;4.472;2022-12-18T06:49:03;48.87;;;45.18;;
66669;SDS011;53568;52.164;4.472;2022-12-18T06:51:29;48.74;;;45.09;;
66669;SDS011;53568;52.164;4.472;2022-12-18T06:53:54;48.41;;;44.86;;
66669;SDS011;53568;52.164;4.472;2022-12-18T06:56:20;47.93;;;44.40;;
66669;SDS011;53568;52.164;4.472;2022-12-18T06:58:45;47.02;;;43.98;;
66669;SDS011;53568;52.164;4.472;2022-12-18T07:01:11;45.69;;;42.83;;
66669;SDS011;53568;52.164;4.472;2022-12-18T07:03:38;45.37;;;42.40;;
66669;SDS011;53568;52.164;4.472;2022-12-18T07:06:05;44.53;;;42.07;;
66669;SDS011;53568;52.164;4.472;2022-12-18T07:08:31;43.89;;;41.69;;
66669;SDS011;53568;52.164;4.472;2022-12-18T07:10:58;44.89;;;42.40;;
66669;SDS011;53568;52.164;4.472;2022-12-18T07:13:23;45.15;;;42.81;;
66669;SDS011;53568;52.164;4.472;2022-12-18T07:15:49;44.53;;;42.34;;
66669;SDS011;53568;52.164;4.472;2022-12-18T07:18:15;44.84;;;42.27;;
66669;SDS011;53568;52.164;4.472;2022-12-18T07:20:40;44.12;;;41.61;;
66669;SDS011;53568;52.164;4.472;2022-12-18T07:23:06;43.10;;;40.94;;
66669;SDS011;53568;52.164;4.472;2022-12-18T07:25:35;41.88;;;40.02;;
66669;SDS011;53568;52.164;4.472;2022-12-18T07:28:02;42.57;;;40.41;;
66669;SDS011;53568;52.164;4.472;2022-12-18T07:30:27;42.66;;;40.62;;
66669;SDS011;53568;52.164;4.472;2022-12-18T07:32:53;41.38;;;39.51;;
66669;SDS011;53568;52.164;4.472;2022-12-18T07:35:18;42.44;;;40.77;;
66669;SDS011;53568;52.164;4.472;2022-12-18T07:37:44;42.11;;;40.32;;
66669;SDS011;53568;52.164;4.472;2022-12-18T07:40:10;41.37;;;39.52;;
66669;SDS011;53568;52.164;4.472;2022-12-18T07:42:36;40.65;;;39.15;;
66669;SDS011;53568;52.164;4.472;2022-12-18T07:45:02;41.85;;;39.96;;
66669;SDS011;53568;52.164;4.472;2022-12-18T07:47:28;40.24;;;38.55;;
66669;SDS011;53568;52.164;4.472;2022-12-18T07:49:54;40.07;;;38.59;;
66669;SDS011;53568;52.164;4.472;2022-12-18T07:52:19;39.62;;;38.09;;
66669;SDS011;53568;52.164;4.472;2022-12-18T07:54:46;38.94;;;37.63;;
66669;SDS011;53568;52.164;4.472;2022-12-18T07:57:15;40.57;;;39.19;;
66669;SDS011;53568;52.164;4.472;2022-12-18T07:59:41;39.90;;;38.38;;
66669;SDS011;53568;52.164;4.472;2022-12-18T08:02:07;38.59;;;37.34;;
66669;SDS011;53568;52.164;4.472;2022-12-18T08:04:32;39.70;;;38.31;;
66669;SDS011;53568;52.164;4.472;2022-12-18T08:06:58;40.47;;;39.13;;
66669;SDS011;53568;52.164;4.472;2022-12-18T08:09:23;40.38;;;39.32;;
66669;SDS011;53568;52.164;4.472;2022-12-18T08:11:49;39.20;;;38.33;;
66669;SDS011;53568;52.164;4.472;2022-12-18T08:14:14;39.15;;;38.34;;
66669;SDS011;53568;52.164;4.472;2022-12-18T08:16:40;38.40;;;37.41;;
66669;SDS011;53568;52.164;4.472;2022-12-18T08:19:05;37.80;;;36.83;;
66669;SDS011;53568;52.164;4.472;2022-12-18T08:21:31;37.70;;;36.84;;
66669;SDS011;53568;52.164;4.472;2022-12-18T08:23:58;37.82;;;36.92;;
66669;SDS011;53568;52.164;4.472;2022-12-18T08:26:25;38.95;;;37.78;;
66669;SDS011;53568;52.164;4.472;2022-12-18T08:28:54;38.42;;;37.63;;
66669;SDS011;53568;52.164;4.472;2022-12-18T08:31:20;38.64;;;38.00;;
66669;SDS011;53568;52.164;4.472;2022-12-18T08:33:50;37.82;;;36.99;;
66669;SDS011;53568;52.164;4.472;2022-12-18T08:36:17;37.70;;;36.90;;
66669;SDS011;53568;52.164;4.472;2022-12-18T08:38:44;39.16;;;38.39;;
66669;SDS011;53568;52.164;4.472;2022-12-18T08:41:11;38.99;;;38.15;;
66669;SDS011;53568;52.164;4.472;2022-12-18T08:43:38;38.04;;;37.51;;
66669;SDS011;53568;52.164;4.472;2022-12-18T08:46:23;37.84;;;37.36;;
66669;SDS011;53568;52.164;4.472;2022-12-18T08:48:51;38.71;;;38.01;;
66669;SDS011;53568;52.164;4.472;2022-12-18T08:51:18;37.97;;;37.46;;
66669;SDS011;53568;52.164;4.472;2022-12-18T08:53:44;37.79;;;37.37;;
66669;SDS011;53568;52.164;4.472;2022-12-18T08:56:10;38.95;;;38.45;;
66669;SDS011;53568;52.164;4.472;2022-12-18T08:58:37;38.89;;;38.28;;
66669;SDS011;53568;52.164;4.472;2022-12-18T09:01:03;39.21;;;38.46;;
66669;SDS011;53568;52.164;4.472;2022-12-18T09:03:30;39.33;;;38.66;;
66669;SDS011;53568;52.164;4.472;2022-12-18T09:05:56;39.13;;;38.36;;
66669;SDS011;53568;52.164;4.472;2022-12-18T09:08:23;40.18;;;39.18;;
66669;SDS011;53568;52.164;4.472;2022-12-18T09:10:49;38.79;;;38.12;;
66669;SDS011;53568;52.164;4.472;2022-12-18T09:13:16;39.77;;;39.18;;
66669;SDS011;53568;52.164;4.472;2022-12-18T09:15:47;39.09;;;38.31;;
66669;SDS011;53568;52.164;4.472;2022-12-18T09:18:15;39.65;;;38.77;;
66669;SDS011;53568;52.164;4.472;2022-12-18T09:20:41;39.45;;;38.80;;
66669;SDS011;53568;52.164;4.472;2022-12-18T09:23:07;38.75;;;38.26;;
66669;SDS011;53568;52.164;4.472;2022-12-18T09:25:34;38.49;;;37.88;;
66669;SDS011;53568;52.164;4.472;2022-12-18T09:28:05;38.52;;;37.90;;
66669;SDS011;53568;52.164;4.472;2022-12-18T09:30:38;38.80;;;38.11;;
66669;SDS011;53568;52.164;4.472;2022-12-18T09:33:05;38.62;;;38.11;;
66669;SDS011;53568;52.164;4.472;2022-12-18T09:35:31;38.80;;;38.22;;
66669;SDS011;53568;52.164;4.472;2022-12-18T09:37:56;38.22;;;37.56;;
66669;SDS011;53568;52.164;4.472;2022-12-18T09:40:23;38.38;;;37.71;;
66669;SDS011;53568;52.164;4.472;2022-12-18T09:42:54;38.26;;;37.63;;
66669;SDS011;53568;52.164;4.472;2022-12-18T09:45:24;38.59;;;37.84;;
66669;SDS011;53568;52.164;4.472;2022-12-18T09:47:50;38.71;;;37.81;;
66669;SDS011;53568;52.164;4.472;2022-12-18T09:52:58;38.24;;;37.40;;
66669;SDS011;53568;52.164;4.472;2022-12-18T09:55:40;39.09;;;38.35;;
66669;SDS011;53568;52.164;4.472;2022-12-18T10:01:01;38.11;;;37.26;;
66669;SDS011;53568;52.164;4.472;2022-12-18T10:03:26;37.36;;;36.62;;
66669;SDS011;53568;52.164;4.472;2022-12-18T10:11:19;37.54;;;36.94;;
66669;SDS011;53568;52.164;4.472;2022-12-18T10:13:56;36.88;;;36.29;;
66669;SDS011;53568;52.164;4.472;2022-12-18T10:27:24;37.23;;;36.34;;
66669;SDS011;53568;52.164;4.472;2022-12-18T10:29:52;36.52;;;35.87;;
66669;SDS011;53568;52.164;4.472;2022-12-18T10:32:22;36.22;;;35.62;;
66669;SDS011;53568;52.164;4.472;2022-12-18T10:34:50;35.94;;;35.40;;
66669;SDS011;53568;52.164;4.472;2022-12-18T10:37:18;36.12;;;35.63;;
66669;SDS011;53568;52.164;4.472;2022-12-18T10:40:04;34.69;;;34.11;;
66669;SDS011;53568;52.164;4.472;2022-12-18T10:42:34;34.86;;;34.35;;
66669;SDS011;53568;52.164;4.472;2022-12-18T10:45:05;35.43;;;34.79;;
66669;SDS011;53568;52.164;4.472;2022-12-18T10:47:49;35.28;;;34.84;;
66669;SDS011;53568;52.164;4.472;2022-12-18T10:50:19;33.99;;;33.52;;
66669;SDS011;53568;52.164;4.472;2022-12-18T10:52:57;34.54;;;34.08;;
66669;SDS011;53568;52.164;4.472;2022-12-18T10:55:32;34.85;;;34.37;;
66669;SDS011;53568;52.164;4.472;2022-12-18T11:01:04;33.90;;;33.19;;
66669;SDS011;53568;52.164;4.472;2022-12-18T11:03:46;34.44;;;33.87;;
66669;SDS011;53568;52.164;4.472;2022-12-18T11:06:25;33.40;;;32.72;;
66669;SDS011;53568;52.164;4.472;2022-12-18T11:09:00;33.17;;;32.75;;
66669;SDS011;53568;52.164;4.472;2022-12-18T11:11:27;34.02;;;33.30;;
66669;SDS011;53568;52.164;4.472;2022-12-18T11:16:46;34.40;;;33.89;;
66669;SDS011;53568;52.164;4.472;2022-12-18T11:19:19;33.82;;;33.36;;
66669;SDS011;53568;52.164;4.472;2022-12-18T11:21:53;35.33;;;34.81;;
66669;SDS011;53568;52.164;4.472;2022-12-18T11:24:30;35.51;;;34.87;;
66669;SDS011;53568;52.164;4.472;2022-12-18T11:27:00;35.52;;;34.88;;
66669;SDS011;53568;52.164;4.472;2022-12-18T11:29:37;34.61;;;34.04;;
66669;SDS011;53568;52.164;4.472;2022-12-18T11:34:59;34.92;;;34.09;;
66669;SDS011;53568;52.164;4.472;2022-12-18T11:37:34;34.00;;;33.38;;
66669;SDS011;53568;52.164;4.472;2022-12-18T11:40:20;33.56;;;33.08;;
66669;SDS011;53568;52.164;4.472;2022-12-18T11:42:58;34.38;;;33.82;;
66669;SDS011;53568;52.164;4.472;2022-12-18T11:45:41;35.03;;;34.45;;
66669;SDS011;53568;52.164;4.472;2022-12-18T11:48:17;33.81;;;33.02;;
66669;SDS011;53568;52.164;4.472;2022-12-18T11:50:51;34.06;;;33.48;;
66669;SDS011;53568;52.164;4.472;2022-12-18T11:53:19;34.52;;;33.84;;
66669;SDS011;53568;52.164;4.472;2022-12-18T11:55:51;34.33;;;33.74;;
66669;SDS011;53568;52.164;4.472;2022-12-18T11:59:04;34.52;;;33.96;;
66669;SDS011;53568;52.164;4.472;2022-12-18T12:01:49;33.95;;;33.46;;
66669;SDS011;53568;52.164;4.472;2022-12-18T12:14:57;35.52;;;34.83;;
66669;SDS011;53568;52.164;4.472;2022-12-18T12:17:47;35.01;;;34.39;;
66669;SDS011;53568;52.164;4.472;2022-12-18T12:23:22;34.27;;;33.62;;
66669;SDS011;53568;52.164;4.472;2022-12-18T12:26:15;34.46;;;33.93;;
66669;SDS011;53568;52.164;4.472;2022-12-18T12:34:36;34.25;;;33.85;;
66669;SDS011;53568;52.164;4.472;2022-12-18T12:40:11;34.29;;;33.69;;
66669;SDS011;53568;52.164;4.472;2022-12-18T12:42:44;34.70;;;33.98;;
66669;SDS011;53568;52.164;4.472;2022-12-18T12:45:54;34.24;;;33.76;;
66669;SDS011;53568;52.164;4.472;2022-12-18T12:48:31;33.35;;;32.93;;
66669;SDS011;53568;52.164;4.472;2022-12-18T12:51:00;33.01;;;32.42;;
66669;SDS011;53568;52.164;4.472;2022-12-18T12:53:34;34.09;;;33.32;;
66669;SDS011;53568;52.164;4.472;2022-12-18T12:56:04;33.15;;;32.62;;
66669;SDS011;53568;52.164;4.472;2022-12-18T13:01:12;33.06;;;32.51;;
66669;SDS011;53568;52.164;4.472;2022-12-18T13:06:40;33.44;;;32.79;;
66669;SDS011;53568;52.164;4.472;2022-12-18T13:09:18;33.43;;;33.03;;
66669;SDS011;53568;52.164;4.472;2022-12-18T13:11:44;32.75;;;32.19;;
66669;SDS011;53568;52.164;4.472;2022-12-18T13:14:30;33.79;;;33.13;;
66669;SDS011;53568;52.164;4.472;2022-12-18T13:19:48;33.02;;;32.50;;
66669;SDS011;53568;52.164;4.472;2022-12-18T13:22:23;33.00;;;32.46;;
66669;SDS011;53568;52.164;4.472;2022-12-18T13:25:00;32.99;;;32.44;;
66669;SDS011;53568;52.164;4.472;2022-12-18T13:35:51;32.53;;;32.14;;
66669;SDS011;53568;52.164;4.472;2022-12-18T13:38:35;32.90;;;32.30;;
66669;SDS011;53568;52.164;4.472;2022-12-18T13:43:48;34.78;;;33.95;;
66669;SDS011;53568;52.164;4.472;2022-12-18T13:46:18;33.97;;;33.31;;
66669;SDS011;53568;52.164;4.472;2022-12-18T13:49:04;33.05;;;32.62;;
66669;SDS011;53568;52.164;4.472;2022-12-18T13:51:48;33.80;;;33.16;;
66669;SDS011;53568;52.164;4.472;2022-12-18T13:54:20;34.35;;;33.53;;
66669;SDS011;53568;52.164;4.472;2022-12-18T13:56:50;33.39;;;32.65;;
66669;SDS011;53568;52.164;4.472;2022-12-18T13:59:20;34.68;;;33.77;;
66669;SDS011;53568;52.164;4.472;2022-12-18T14:01:52;33.69;;;33.08;;
66669;SDS011;53568;52.164;4.472;2022-12-18T14:04:24;34.10;;;33.71;;
66669;SDS011;53568;52.164;4.472;2022-12-18T14:06:58;33.31;;;32.90;;
66669;SDS011;53568;52.164;4.472;2022-12-18T14:09:35;33.58;;;33.14;;
66669;SDS011;53568;52.164;4.472;2022-12-18T14:12:04;33.22;;;32.71;;
66669;SDS011;53568;52.164;4.472;2022-12-18T14:14:50;33.66;;;33.13;;
66669;SDS011;53568;52.164;4.472;2022-12-18T14:17:18;34.44;;;33.87;;
66669;SDS011;53568;52.164;4.472;2022-12-18T14:19:45;33.50;;;32.96;;
66669;SDS011;53568;52.164;4.472;2022-12-18T14:22:20;33.26;;;32.73;;
66669;SDS011;53568;52.164;4.472;2022-12-18T14:25:06;33.34;;;32.67;;
66669;SDS011;53568;52.164;4.472;2022-12-18T14:27:42;33.76;;;33.19;;
66669;SDS011;53568;52.164;4.472;2022-12-18T14:33:09;34.00;;;33.11;;
66669;SDS011;53568;52.164;4.472;2022-12-18T14:38:25;33.16;;;32.61;;
66669;SDS011;53568;52.164;4.472;2022-12-18T14:41:01;33.96;;;33.21;;
66669;SDS011;53568;52.164;4.472;2022-12-18T14:43:28;33.44;;;32.86;;
66669;SDS011;53568;52.164;4.472;2022-12-18T14:45:59;33.83;;;33.24;;
66669;SDS011;53568;52.164;4.472;2022-12-18T14:48:35;33.99;;;33.20;;
66669;SDS011;53568;52.164;4.472;2022-12-18T14:54:01;33.54;;;32.95;;
66669;SDS011;53568;52.164;4.472;2022-12-18T14:56:36;33.37;;;32.64;;
66669;SDS011;53568;52.164;4.472;2022-12-18T14:59:18;33.52;;;32.69;;
66669;SDS011;53568;52.164;4.472;2022-12-18T15:01:56;33.62;;;32.89;;
66669;SDS011;53568;52.164;4.472;2022-12-18T15:04:36;33.59;;;32.66;;
66669;SDS011;53568;52.164;4.472;2022-12-18T15:07:13;33.36;;;32.41;;
66669;SDS011;53568;52.164;4.472;2022-12-18T15:09:42;33.54;;;32.72;;
66669;SDS011;53568;52.164;4.472;2022-12-18T15:14:59;34.41;;;33.53;;
66669;SDS011;53568;52.164;4.472;2022-12-18T15:17:24;33.84;;;33.02;;
66669;SDS011;53568;52.164;4.472;2022-12-18T15:19:52;33.37;;;32.73;;
66669;SDS011;53568;52.164;4.472;2022-12-18T15:22:32;33.09;;;32.24;;
66669;SDS011;53568;52.164;4.472;2022-12-18T15:25:00;32.74;;;32.34;;
66669;SDS011;53568;52.164;4.472;2022-12-18T15:27:35;33.65;;;32.77;;
66669;SDS011;53568;52.164;4.472;2022-12-18T15:32:34;33.56;;;32.86;;
66669;SDS011;53568;52.164;4.472;2022-12-18T15:37:36;32.95;;;32.37;;
66669;SDS011;53568;52.164;4.472;2022-12-18T15:40:03;34.14;;;33.27;;
66669;SDS011;53568;52.164;4.472;2022-12-18T15:42:29;33.93;;;33.04;;
66669;SDS011;53568;52.164;4.472;2022-12-18T15:45:13;33.73;;;33.07;;
66669;SDS011;53568;52.164;4.472;2022-12-18T15:47:39;33.61;;;32.93;;
66669;SDS011;53568;52.164;4.472;2022-12-18T15:50:07;33.93;;;33.33;;
66669;SDS011;53568;52.164;4.472;2022-12-18T15:52:36;32.89;;;32.31;;
66669;SDS011;53568;52.164;4.472;2022-12-18T15:55:11;33.31;;;32.71;;
66669;SDS011;53568;52.164;4.472;2022-12-18T15:57:56;33.70;;;33.03;;
66669;SDS011;53568;52.164;4.472;2022-12-18T16:00:22;34.28;;;33.37;;
66669;SDS011;53568;52.164;4.472;2022-12-18T16:02:48;33.59;;;32.92;;
66669;SDS011;53568;52.164;4.472;2022-12-18T16:05:14;33.47;;;32.97;;
66669;SDS011;53568;52.164;4.472;2022-12-18T16:07:42;34.62;;;33.83;;
66669;SDS011;53568;52.164;4.472;2022-12-18T16:10:08;35.65;;;34.84;;
66669;SDS011;53568;52.164;4.472;2022-12-18T16:12:34;34.77;;;33.94;;
66669;SDS011;53568;52.164;4.472;2022-12-18T16:15:01;34.94;;;34.37;;
66669;SDS011;53568;52.164;4.472;2022-12-18T16:17:27;35.22;;;34.75;;
66669;SDS011;53568;52.164;4.472;2022-12-18T16:19:53;34.72;;;34.23;;
66669;SDS011;53568;52.164;4.472;2022-12-18T16:22:22;34.78;;;34.13;;
66669;SDS011;53568;52.164;4.472;2022-12-18T16:24:51;35.34;;;34.50;;
66669;SDS011;53568;52.164;4.472;2022-12-18T16:27:18;35.12;;;34.31;;
66669;SDS011;53568;52.164;4.472;2022-12-18T16:29:44;35.43;;;34.72;;
66669;SDS011;53568;52.164;4.472;2022-12-18T16:32:28;35.87;;;35.01;;
66669;SDS011;53568;52.164;4.472;2022-12-18T16:34:53;35.67;;;34.81;;